sensor_id;sensor_type;location;lat;lon;timestamp;P1;durP1;ratioP1;P2;durP2;ratioP2
75007;SDS011;63554;48.940;12.050;2023-08-30T00:02:14;2.85;;;2.15;;
75007;SDS011;63554;48.940;12.050;2023-08-30T00:06:16;2.97;;;2.30;;
75007;SDS011;63554;48.940;12.050;2023-08-30T00:10:20;2.13;;;1.83;;
75007;SDS011;63554;48.940;12.050;2023-08-30T00:14:24;5.22;;;2.50;;
75007;SDS011;63554;48.940;12.050;2023-08-30T00:18:27;2.42;;;2.17;;
75007;SDS011;63554;48.940;12.050;2023-08-30T00:22:29;3.65;;;2.65;;
75007;SDS011;63554;48.940;12.050;2023-08-30T00:26:32;2.88;;;2.28;;
75007;SDS011;63554;48.940;12.050;2023-08-30T00:30:36;2.78;;;2.30;;
75007;SDS011;63554;48.940;12.050;2023-08-30T00:34:39;2.83;;;2.50;;
75007;SDS011;63554;48.940;12.050;2023-08-30T00:38:41;2.83;;;2.47;;
75007;SDS011;63554;48.940;12.050;2023-08-30T00:42:44;2.80;;;2.08;;
75007;SDS011;63554;48.940;12.050;2023-08-30T00:46:48;3.60;;;2.50;;
75007;SDS011;63554;48.940;12.050;2023-08-30T00:50:51;3.20;;;2.55;;
75007;SDS011;63554;48.940;12.050;2023-08-30T00:54:54;2.75;;;2.30;;
75007;SDS011;63554;48.940;12.050;2023-08-30T00:58:57;2.88;;;2.22;;
75007;SDS011;63554;48.940;12.050;2023-08-30T01:03:01;2.83;;;2.55;;
75007;SDS011;63554;48.940;12.050;2023-08-30T01:07:05;2.78;;;2.20;;
75007;SDS011;63554;48.940;12.050;2023-08-30T01:11:09;2.15;;;1.95;;
75007;SDS011;63554;48.940;12.050;2023-08-30T01:15:18;3.35;;;2.38;;
75007;SDS011;63554;48.940;12.050;2023-08-30T01:19:30;3.80;;;2.28;;
75007;SDS011;63554;48.940;12.050;2023-08-30T01:23:47;2.63;;;2.28;;
75007;SDS011;63554;48.940;12.050;2023-08-30T01:27:56;3.90;;;2.42;;
75007;SDS011;63554;48.940;12.050;2023-08-30T01:32:01;2.53;;;2.00;;
75007;SDS011;63554;48.940;12.050;2023-08-30T01:36:05;2.67;;;2.30;;
75007;SDS011;63554;48.940;12.050;2023-08-30T01:40:09;3.17;;;2.53;;
75007;SDS011;63554;48.940;12.050;2023-08-30T01:44:14;2.83;;;2.50;;
75007;SDS011;63554;48.940;12.050;2023-08-30T01:48:18;2.97;;;2.60;;
75007;SDS011;63554;48.940;12.050;2023-08-30T01:52:22;2.92;;;2.50;;
75007;SDS011;63554;48.940;12.050;2023-08-30T01:56:26;3.20;;;2.55;;
75007;SDS011;63554;48.940;12.050;2023-08-30T02:00:30;4.95;;;2.33;;
75007;SDS011;63554;48.940;12.050;2023-08-30T02:04:33;2.47;;;1.95;;
75007;SDS011;63554;48.940;12.050;2023-08-30T02:08:36;4.30;;;2.67;;
75007;SDS011;63554;48.940;12.050;2023-08-30T02:12:44;2.40;;;2.20;;
75007;SDS011;63554;48.940;12.050;2023-08-30T02:16:51;2.75;;;2.25;;
75007;SDS011;63554;48.940;12.050;2023-08-30T02:20:57;3.53;;;2.40;;
75007;SDS011;63554;48.940;12.050;2023-08-30T02:25:00;2.95;;;2.65;;
75007;SDS011;63554;48.940;12.050;2023-08-30T02:29:06;3.10;;;2.25;;
75007;SDS011;63554;48.940;12.050;2023-08-30T02:33:10;2.88;;;2.17;;
75007;SDS011;63554;48.940;12.050;2023-08-30T02:37:13;3.53;;;2.70;;
75007;SDS011;63554;48.940;12.050;2023-08-30T02:41:16;3.05;;;2.75;;
75007;SDS011;63554;48.940;12.050;2023-08-30T02:45:18;4.18;;;2.95;;
75007;SDS011;63554;48.940;12.050;2023-08-30T02:49:22;2.63;;;2.25;;
75007;SDS011;63554;48.940;12.050;2023-08-30T02:53:25;2.97;;;2.50;;
75007;SDS011;63554;48.940;12.050;2023-08-30T02:57:28;3.08;;;2.30;;
75007;SDS011;63554;48.940;12.050;2023-08-30T03:01:30;3.33;;;2.58;;
75007;SDS011;63554;48.940;12.050;2023-08-30T03:05:35;3.70;;;3.13;;
75007;SDS011;63554;48.940;12.050;2023-08-30T03:09:38;3.88;;;2.75;;
75007;SDS011;63554;48.940;12.050;2023-08-30T03:13:41;4.30;;;2.50;;
75007;SDS011;63554;48.940;12.050;2023-08-30T03:17:44;4.30;;;2.45;;
75007;SDS011;63554;48.940;12.050;2023-08-30T03:21:48;3.45;;;2.60;;
75007;SDS011;63554;48.940;12.050;2023-08-30T03:25:51;2.97;;;2.50;;
75007;SDS011;63554;48.940;12.050;2023-08-30T03:29:54;4.60;;;2.42;;
75007;SDS011;63554;48.940;12.050;2023-08-30T03:33:57;4.40;;;3.10;;
75007;SDS011;63554;48.940;12.050;2023-08-30T03:38:01;3.70;;;2.88;;
75007;SDS011;63554;48.940;12.050;2023-08-30T03:42:04;3.70;;;2.70;;
75007;SDS011;63554;48.940;12.050;2023-08-30T03:46:07;3.40;;;2.42;;
75007;SDS011;63554;48.940;12.050;2023-08-30T03:50:11;4.85;;;2.97;;
75007;SDS011;63554;48.940;12.050;2023-08-30T03:54:15;3.60;;;2.22;;
75007;SDS011;63554;48.940;12.050;2023-08-30T03:58:18;4.18;;;2.75;;
75007;SDS011;63554;48.940;12.050;2023-08-30T04:02:21;4.97;;;2.75;;
75007;SDS011;63554;48.940;12.050;2023-08-30T04:06:24;3.33;;;2.78;;
75007;SDS011;63554;48.940;12.050;2023-08-30T04:10:33;4.35;;;1.98;;
75007;SDS011;63554;48.940;12.050;2023-08-30T04:14:36;3.95;;;2.60;;
75007;SDS011;63554;48.940;12.050;2023-08-30T04:18:39;3.30;;;3.00;;
75007;SDS011;63554;48.940;12.050;2023-08-30T04:22:42;2.85;;;2.55;;
75007;SDS011;63554;48.940;12.050;2023-08-30T04:26:46;4.22;;;2.90;;
75007;SDS011;63554;48.940;12.050;2023-08-30T04:30:52;3.60;;;2.58;;
75007;SDS011;63554;48.940;12.050;2023-08-30T04:34:55;2.92;;;2.53;;
75007;SDS011;63554;48.940;12.050;2023-08-30T04:38:58;3.95;;;2.85;;
75007;SDS011;63554;48.940;12.050;2023-08-30T04:43:05;3.95;;;3.40;;
75007;SDS011;63554;48.940;12.050;2023-08-30T04:47:07;3.40;;;2.60;;
75007;SDS011;63554;48.940;12.050;2023-08-30T04:51:10;5.22;;;2.70;;
75007;SDS011;63554;48.940;12.050;2023-08-30T04:55:13;2.67;;;2.28;;
75007;SDS011;63554;48.940;12.050;2023-08-30T04:59:17;3.45;;;3.15;;
75007;SDS011;63554;48.940;12.050;2023-08-30T05:03:19;3.50;;;2.30;;
75007;SDS011;63554;48.940;12.050;2023-08-30T05:07:22;6.90;;;2.53;;
75007;SDS011;63554;48.940;12.050;2023-08-30T05:11:25;3.60;;;3.08;;
75007;SDS011;63554;48.940;12.050;2023-08-30T05:15:29;3.20;;;2.33;;
75007;SDS011;63554;48.940;12.050;2023-08-30T05:19:32;3.38;;;2.75;;
75007;SDS011;63554;48.940;12.050;2023-08-30T05:23:34;4.38;;;2.90;;
75007;SDS011;63554;48.940;12.050;2023-08-30T05:27:40;3.42;;;3.03;;
75007;SDS011;63554;48.940;12.050;2023-08-30T05:31:44;3.33;;;2.92;;
75007;SDS011;63554;48.940;12.050;2023-08-30T05:35:47;3.63;;;3.00;;
75007;SDS011;63554;48.940;12.050;2023-08-30T05:39:50;4.25;;;2.83;;
75007;SDS011;63554;48.940;12.050;2023-08-30T05:43:53;3.70;;;3.10;;
75007;SDS011;63554;48.940;12.050;2023-08-30T05:47:57;3.88;;;3.10;;
75007;SDS011;63554;48.940;12.050;2023-08-30T05:52:00;4.35;;;3.22;;
75007;SDS011;63554;48.940;12.050;2023-08-30T05:56:03;4.43;;;3.10;;
75007;SDS011;63554;48.940;12.050;2023-08-30T06:00:06;6.43;;;3.45;;
75007;SDS011;63554;48.940;12.050;2023-08-30T06:04:11;4.32;;;2.80;;
75007;SDS011;63554;48.940;12.050;2023-08-30T06:08:15;3.75;;;3.28;;
75007;SDS011;63554;48.940;12.050;2023-08-30T06:12:19;3.97;;;2.95;;
75007;SDS011;63554;48.940;12.050;2023-08-30T06:16:21;3.80;;;2.75;;
75007;SDS011;63554;48.940;12.050;2023-08-30T06:20:25;4.43;;;2.95;;
75007;SDS011;63554;48.940;12.050;2023-08-30T06:24:28;3.85;;;2.88;;
75007;SDS011;63554;48.940;12.050;2023-08-30T06:28:31;4.57;;;3.80;;
75007;SDS011;63554;48.940;12.050;2023-08-30T06:32:33;3.72;;;2.80;;
75007;SDS011;63554;48.940;12.050;2023-08-30T06:36:37;5.05;;;3.50;;
75007;SDS011;63554;48.940;12.050;2023-08-30T06:40:42;4.65;;;3.47;;
75007;SDS011;63554;48.940;12.050;2023-08-30T06:44:45;3.65;;;2.53;;
75007;SDS011;63554;48.940;12.050;2023-08-30T06:48:49;4.47;;;3.15;;
75007;SDS011;63554;48.940;12.050;2023-08-30T06:52:53;4.25;;;3.00;;
75007;SDS011;63554;48.940;12.050;2023-08-30T06:56:56;3.38;;;2.85;;
75007;SDS011;63554;48.940;12.050;2023-08-30T07:01:00;4.60;;;3.13;;
75007;SDS011;63554;48.940;12.050;2023-08-30T07:05:04;4.18;;;3.08;;
75007;SDS011;63554;48.940;12.050;2023-08-30T07:09:09;4.28;;;2.60;;
75007;SDS011;63554;48.940;12.050;2023-08-30T07:13:12;5.07;;;3.45;;
75007;SDS011;63554;48.940;12.050;2023-08-30T07:17:15;3.70;;;3.17;;
75007;SDS011;63554;48.940;12.050;2023-08-30T07:21:18;3.83;;;2.75;;
75007;SDS011;63554;48.940;12.050;2023-08-30T07:25:22;4.40;;;3.17;;
75007;SDS011;63554;48.940;12.050;2023-08-30T07:29:25;3.33;;;2.70;;
75007;SDS011;63554;48.940;12.050;2023-08-30T07:33:28;6.25;;;3.05;;
75007;SDS011;63554;48.940;12.050;2023-08-30T07:37:31;4.10;;;3.30;;
75007;SDS011;63554;48.940;12.050;2023-08-30T07:41:35;4.35;;;2.97;;
75007;SDS011;63554;48.940;12.050;2023-08-30T07:45:39;3.78;;;3.10;;
75007;SDS011;63554;48.940;12.050;2023-08-30T07:49:42;4.75;;;2.80;;
75007;SDS011;63554;48.940;12.050;2023-08-30T07:53:44;3.08;;;2.60;;
75007;SDS011;63554;48.940;12.050;2023-08-30T07:57:49;4.38;;;3.15;;
75007;SDS011;63554;48.940;12.050;2023-08-30T08:01:52;4.90;;;3.20;;
75007;SDS011;63554;48.940;12.050;2023-08-30T08:05:55;4.25;;;3.33;;
75007;SDS011;63554;48.940;12.050;2023-08-30T08:09:57;4.43;;;3.47;;
75007;SDS011;63554;48.940;12.050;2023-08-30T08:14:02;3.70;;;3.13;;
75007;SDS011;63554;48.940;12.050;2023-08-30T08:18:05;4.93;;;2.70;;
75007;SDS011;63554;48.940;12.050;2023-08-30T08:22:08;5.63;;;3.95;;
75007;SDS011;63554;48.940;12.050;2023-08-30T08:26:11;4.80;;;3.72;;
75007;SDS011;63554;48.940;12.050;2023-08-30T08:30:15;5.35;;;3.45;;
75007;SDS011;63554;48.940;12.050;2023-08-30T08:34:18;4.60;;;3.45;;
75007;SDS011;63554;48.940;12.050;2023-08-30T08:38:24;4.53;;;3.28;;
75007;SDS011;63554;48.940;12.050;2023-08-30T08:42:26;7.43;;;4.28;;
75007;SDS011;63554;48.940;12.050;2023-08-30T08:46:31;3.47;;;2.47;;
75007;SDS011;63554;48.940;12.050;2023-08-30T08:50:34;2.88;;;2.40;;
75007;SDS011;63554;48.940;12.050;2023-08-30T08:54:38;3.80;;;2.80;;
75007;SDS011;63554;48.940;12.050;2023-08-30T08:58:41;3.65;;;2.83;;
75007;SDS011;63554;48.940;12.050;2023-08-30T09:02:46;4.95;;;3.13;;
75007;SDS011;63554;48.940;12.050;2023-08-30T09:06:53;4.38;;;3.13;;
75007;SDS011;63554;48.940;12.050;2023-08-30T09:10:57;2.70;;;2.42;;
75007;SDS011;63554;48.940;12.050;2023-08-30T09:14:59;3.38;;;2.53;;
75007;SDS011;63554;48.940;12.050;2023-08-30T09:19:04;2.92;;;2.10;;
75007;SDS011;63554;48.940;12.050;2023-08-30T09:23:17;3.72;;;1.98;;
75007;SDS011;63554;48.940;12.050;2023-08-30T09:27:21;3.35;;;2.47;;
75007;SDS011;63554;48.940;12.050;2023-08-30T09:31:34;2.40;;;2.08;;
75007;SDS011;63554;48.940;12.050;2023-08-30T09:35:44;3.80;;;2.15;;
75007;SDS011;63554;48.940;12.050;2023-08-30T09:39:48;5.07;;;2.88;;
75007;SDS011;63554;48.940;12.050;2023-08-30T09:43:52;3.05;;;2.35;;
75007;SDS011;63554;48.940;12.050;2023-08-30T09:48:12;5.03;;;2.28;;
75007;SDS011;63554;48.940;12.050;2023-08-30T09:52:17;2.30;;;1.88;;
75007;SDS011;63554;48.940;12.050;2023-08-30T09:56:22;5.35;;;2.25;;
75007;SDS011;63554;48.940;12.050;2023-08-30T10:00:25;2.42;;;2.17;;
75007;SDS011;63554;48.940;12.050;2023-08-30T10:04:28;2.72;;;2.13;;
75007;SDS011;63554;48.940;12.050;2023-08-30T10:08:33;2.45;;;2.00;;
75007;SDS011;63554;48.940;12.050;2023-08-30T10:12:38;2.83;;;1.95;;
75007;SDS011;63554;48.940;12.050;2023-08-30T10:16:55;2.88;;;1.85;;
75007;SDS011;63554;48.940;12.050;2023-08-30T10:21:06;2.67;;;1.60;;
75007;SDS011;63554;48.940;12.050;2023-08-30T10:25:17;2.38;;;1.90;;
75007;SDS011;63554;48.940;12.050;2023-08-30T10:29:23;1.83;;;1.50;;
75007;SDS011;63554;48.940;12.050;2023-08-30T10:33:27;2.40;;;1.98;;
75007;SDS011;63554;48.940;12.050;2023-08-30T10:37:30;2.20;;;1.77;;
75007;SDS011;63554;48.940;12.050;2023-08-30T10:41:53;2.50;;;2.30;;
75007;SDS011;63554;48.940;12.050;2023-08-30T10:46:01;2.78;;;1.83;;
75007;SDS011;63554;48.940;12.050;2023-08-30T10:50:05;2.30;;;2.10;;
75007;SDS011;63554;48.940;12.050;2023-08-30T10:54:12;2.95;;;1.73;;
75007;SDS011;63554;48.940;12.050;2023-08-30T10:58:16;2.47;;;1.48;;
75007;SDS011;63554;48.940;12.050;2023-08-30T11:02:19;2.72;;;1.92;;
75007;SDS011;63554;48.940;12.050;2023-08-30T11:06:22;2.33;;;2.10;;
75007;SDS011;63554;48.940;12.050;2023-08-30T11:10:25;3.90;;;1.67;;
75007;SDS011;63554;48.940;12.050;2023-08-30T11:14:30;2.00;;;1.70;;
75007;SDS011;63554;48.940;12.050;2023-08-30T11:22:39;3.15;;;1.60;;
75007;SDS011;63554;48.940;12.050;2023-08-30T11:26:44;2.28;;;1.70;;
75007;SDS011;63554;48.940;12.050;2023-08-30T11:30:48;2.22;;;1.95;;
75007;SDS011;63554;48.940;12.050;2023-08-30T11:34:55;3.38;;;2.00;;
75007;SDS011;63554;48.940;12.050;2023-08-30T11:38:58;3.92;;;2.88;;
75007;SDS011;63554;48.940;12.050;2023-08-30T11:43:01;3.25;;;2.30;;
75007;SDS011;63554;48.940;12.050;2023-08-30T11:47:06;2.75;;;2.40;;
75007;SDS011;63554;48.940;12.050;2023-08-30T11:51:09;2.88;;;2.53;;
75007;SDS011;63554;48.940;12.050;2023-08-30T11:55:13;4.85;;;3.92;;
75007;SDS011;63554;48.940;12.050;2023-08-30T11:59:19;4.03;;;3.63;;
75007;SDS011;63554;48.940;12.050;2023-08-30T12:03:24;3.20;;;2.90;;
75007;SDS011;63554;48.940;12.050;2023-08-30T12:07:29;3.53;;;2.95;;
75007;SDS011;63554;48.940;12.050;2023-08-30T12:11:32;4.75;;;3.80;;
75007;SDS011;63554;48.940;12.050;2023-08-30T12:15:38;4.10;;;2.85;;
75007;SDS011;63554;48.940;12.050;2023-08-30T12:19:43;3.72;;;2.90;;
75007;SDS011;63554;48.940;12.050;2023-08-30T12:23:45;3.47;;;3.03;;
75007;SDS011;63554;48.940;12.050;2023-08-30T12:27:49;3.03;;;2.72;;
75007;SDS011;63554;48.940;12.050;2023-08-30T12:31:52;2.75;;;2.15;;
75007;SDS011;63554;48.940;12.050;2023-08-30T12:35:56;2.15;;;1.77;;
75007;SDS011;63554;48.940;12.050;2023-08-30T12:39:59;1.73;;;1.45;;
75007;SDS011;63554;48.940;12.050;2023-08-30T12:44:02;1.70;;;1.60;;
75007;SDS011;63554;48.940;12.050;2023-08-30T12:48:05;1.60;;;1.50;;
75007;SDS011;63554;48.940;12.050;2023-08-30T12:52:10;1.92;;;1.60;;
75007;SDS011;63554;48.940;12.050;2023-08-30T12:56:12;2.30;;;1.65;;
75007;SDS011;63554;48.940;12.050;2023-08-30T13:00:15;1.90;;;1.70;;
75007;SDS011;63554;48.940;12.050;2023-08-30T13:04:18;1.83;;;1.60;;
75007;SDS011;63554;48.940;12.050;2023-08-30T13:08:22;5.25;;;2.03;;
75007;SDS011;63554;48.940;12.050;2023-08-30T13:12:25;2.30;;;2.10;;
75007;SDS011;63554;48.940;12.050;2023-08-30T13:16:28;3.40;;;2.10;;
75007;SDS011;63554;48.940;12.050;2023-08-30T13:20:31;4.38;;;2.92;;
75007;SDS011;63554;48.940;12.050;2023-08-30T13:24:35;2.38;;;2.17;;
75007;SDS011;63554;48.940;12.050;2023-08-30T13:28:38;2.10;;;1.85;;
75007;SDS011;63554;48.940;12.050;2023-08-30T13:32:40;2.40;;;2.20;;
75007;SDS011;63554;48.940;12.050;2023-08-30T13:36:43;2.75;;;2.22;;
75007;SDS011;63554;48.940;12.050;2023-08-30T13:40:47;2.97;;;2.40;;
75007;SDS011;63554;48.940;12.050;2023-08-30T13:44:50;7.55;;;5.93;;
75007;SDS011;63554;48.940;12.050;2023-08-30T13:48:54;5.72;;;2.40;;
75007;SDS011;63554;48.940;12.050;2023-08-30T13:52:57;2.13;;;1.90;;
75007;SDS011;63554;48.940;12.050;2023-08-30T13:57:01;2.92;;;1.67;;
75007;SDS011;63554;48.940;12.050;2023-08-30T14:01:04;3.15;;;2.20;;
75007;SDS011;63554;48.940;12.050;2023-08-30T14:05:07;2.65;;;2.30;;
75007;SDS011;63554;48.940;12.050;2023-08-30T14:09:11;2.42;;;1.85;;
75007;SDS011;63554;48.940;12.050;2023-08-30T14:13:16;1.80;;;1.20;;
75007;SDS011;63554;48.940;12.050;2023-08-30T14:17:19;2.13;;;1.85;;
75007;SDS011;63554;48.940;12.050;2023-08-30T14:21:25;1.80;;;1.52;;
75007;SDS011;63554;48.940;12.050;2023-08-30T14:25:28;2.50;;;1.80;;
75007;SDS011;63554;48.940;12.050;2023-08-30T14:29:32;1.83;;;1.50;;
75007;SDS011;63554;48.940;12.050;2023-08-30T14:33:35;2.17;;;1.40;;
75007;SDS011;63554;48.940;12.050;2023-08-30T14:37:38;1.33;;;1.05;;
75007;SDS011;63554;48.940;12.050;2023-08-30T14:41:42;1.55;;;1.35;;
75007;SDS011;63554;48.940;12.050;2023-08-30T14:45:46;2.03;;;1.33;;
75007;SDS011;63554;48.940;12.050;2023-08-30T14:50:03;1.30;;;1.08;;
75007;SDS011;63554;48.940;12.050;2023-08-30T14:54:07;1.27;;;1.17;;
75007;SDS011;63554;48.940;12.050;2023-08-30T14:58:09;1.70;;;1.33;;
75007;SDS011;63554;48.940;12.050;2023-08-30T15:02:14;1.65;;;1.42;;
75007;SDS011;63554;48.940;12.050;2023-08-30T15:06:16;1.85;;;1.20;;
75007;SDS011;63554;48.940;12.050;2023-08-30T15:10:19;1.52;;;1.20;;
75007;SDS011;63554;48.940;12.050;2023-08-30T15:14:22;1.15;;;1.00;;
75007;SDS011;63554;48.940;12.050;2023-08-30T15:18:26;1.85;;;1.10;;
75007;SDS011;63554;48.940;12.050;2023-08-30T15:22:29;1.70;;;0.98;;
75007;SDS011;63554;48.940;12.050;2023-08-30T15:26:33;1.77;;;1.00;;
75007;SDS011;63554;48.940;12.050;2023-08-30T15:30:36;2.47;;;1.33;;
75007;SDS011;63554;48.940;12.050;2023-08-30T15:34:40;2.58;;;1.58;;
75007;SDS011;63554;48.940;12.050;2023-08-30T15:38:43;2.72;;;1.55;;
75007;SDS011;63554;48.940;12.050;2023-08-30T15:42:46;2.17;;;1.63;;
75007;SDS011;63554;48.940;12.050;2023-08-30T15:46:49;5.20;;;2.55;;
75007;SDS011;63554;48.940;12.050;2023-08-30T15:50:53;7.45;;;3.85;;
75007;SDS011;63554;48.940;12.050;2023-08-30T15:54:56;4.55;;;3.40;;
75007;SDS011;63554;48.940;12.050;2023-08-30T15:58:59;2.90;;;2.20;;
75007;SDS011;63554;48.940;12.050;2023-08-30T16:03:02;3.13;;;2.60;;
75007;SDS011;63554;48.940;12.050;2023-08-30T16:07:06;2.50;;;2.28;;
75007;SDS011;63554;48.940;12.050;2023-08-30T16:11:09;3.80;;;2.70;;
75007;SDS011;63554;48.940;12.050;2023-08-30T16:15:12;3.35;;;2.15;;
75007;SDS011;63554;48.940;12.050;2023-08-30T16:19:15;3.00;;;2.50;;
75007;SDS011;63554;48.940;12.050;2023-08-30T16:23:20;3.20;;;2.20;;
75007;SDS011;63554;48.940;12.050;2023-08-30T16:27:22;2.13;;;1.88;;
75007;SDS011;63554;48.940;12.050;2023-08-30T16:31:27;3.00;;;2.20;;
75007;SDS011;63554;48.940;12.050;2023-08-30T16:35:31;3.63;;;2.20;;
75007;SDS011;63554;48.940;12.050;2023-08-30T16:39:36;3.00;;;2.25;;
75007;SDS011;63554;48.940;12.050;2023-08-30T16:43:38;2.72;;;2.38;;
75007;SDS011;63554;48.940;12.050;2023-08-30T16:47:41;4.70;;;2.65;;
75007;SDS011;63554;48.940;12.050;2023-08-30T16:52:04;5.00;;;2.38;;
75007;SDS011;63554;48.940;12.050;2023-08-30T16:56:08;2.35;;;1.63;;
75007;SDS011;63554;48.940;12.050;2023-08-30T17:00:12;2.95;;;2.30;;
75007;SDS011;63554;48.940;12.050;2023-08-30T17:04:15;2.72;;;2.50;;
75007;SDS011;63554;48.940;12.050;2023-08-30T17:08:18;4.72;;;3.17;;
75007;SDS011;63554;48.940;12.050;2023-08-30T17:12:22;5.03;;;2.70;;
75007;SDS011;63554;48.940;12.050;2023-08-30T17:16:25;12.13;;;8.80;;
75007;SDS011;63554;48.940;12.050;2023-08-30T17:20:28;5.00;;;4.35;;
75007;SDS011;63554;48.940;12.050;2023-08-30T17:24:31;3.35;;;2.58;;
75007;SDS011;63554;48.940;12.050;2023-08-30T17:28:38;4.05;;;3.08;;
75007;SDS011;63554;48.940;12.050;2023-08-30T17:32:41;4.63;;;2.85;;
75007;SDS011;63554;48.940;12.050;2023-08-30T17:36:44;4.38;;;3.00;;
75007;SDS011;63554;48.940;12.050;2023-08-30T17:40:49;5.00;;;3.10;;
75007;SDS011;63554;48.940;12.050;2023-08-30T17:44:53;3.90;;;3.03;;
75007;SDS011;63554;48.940;12.050;2023-08-30T17:49:01;4.53;;;2.95;;
75007;SDS011;63554;48.940;12.050;2023-08-30T17:53:04;7.80;;;4.65;;
75007;SDS011;63554;48.940;12.050;2023-08-30T17:57:07;9.65;;;5.22;;
75007;SDS011;63554;48.940;12.050;2023-08-30T18:01:12;8.88;;;4.40;;
75007;SDS011;63554;48.940;12.050;2023-08-30T18:05:15;5.55;;;3.88;;
75007;SDS011;63554;48.940;12.050;2023-08-30T18:09:19;4.20;;;3.20;;
75007;SDS011;63554;48.940;12.050;2023-08-30T18:13:22;5.35;;;3.72;;
75007;SDS011;63554;48.940;12.050;2023-08-30T18:17:27;5.60;;;3.72;;
75007;SDS011;63554;48.940;12.050;2023-08-30T18:25:37;4.60;;;3.38;;
75007;SDS011;63554;48.940;12.050;2023-08-30T18:29:40;4.18;;;2.97;;
75007;SDS011;63554;48.940;12.050;2023-08-30T18:33:45;4.82;;;2.97;;
75007;SDS011;63554;48.940;12.050;2023-08-30T18:37:48;3.70;;;2.70;;
75007;SDS011;63554;48.940;12.050;2023-08-30T18:41:51;4.13;;;2.90;;
75007;SDS011;63554;48.940;12.050;2023-08-30T18:45:54;3.30;;;2.03;;
75007;SDS011;63554;48.940;12.050;2023-08-30T18:49:58;2.85;;;2.50;;
75007;SDS011;63554;48.940;12.050;2023-08-30T18:54:01;4.00;;;3.10;;
75007;SDS011;63554;48.940;12.050;2023-08-30T18:58:06;3.13;;;2.75;;
75007;SDS011;63554;48.940;12.050;2023-08-30T19:02:08;2.97;;;2.67;;
75007;SDS011;63554;48.940;12.050;2023-08-30T19:06:13;2.63;;;2.42;;
75007;SDS011;63554;48.940;12.050;2023-08-30T19:10:16;4.05;;;2.53;;
75007;SDS011;63554;48.940;12.050;2023-08-30T19:14:19;2.60;;;2.38;;
75007;SDS011;63554;48.940;12.050;2023-08-30T19:18:21;3.55;;;3.00;;
75007;SDS011;63554;48.940;12.050;2023-08-30T19:22:27;9.98;;;5.43;;
75007;SDS011;63554;48.940;12.050;2023-08-30T19:26:29;4.72;;;3.25;;
75007;SDS011;63554;48.940;12.050;2023-08-30T19:30:32;5.18;;;2.78;;
75007;SDS011;63554;48.940;12.050;2023-08-30T19:34:35;4.97;;;3.13;;
75007;SDS011;63554;48.940;12.050;2023-08-30T19:38:39;2.88;;;2.63;;
75007;SDS011;63554;48.940;12.050;2023-08-30T19:42:42;2.92;;;2.63;;
75007;SDS011;63554;48.940;12.050;2023-08-30T19:46:47;2.80;;;2.60;;
75007;SDS011;63554;48.940;12.050;2023-08-30T19:50:50;3.13;;;2.58;;
75007;SDS011;63554;48.940;12.050;2023-08-30T19:54:55;3.85;;;3.00;;
75007;SDS011;63554;48.940;12.050;2023-08-30T19:58:57;4.75;;;3.45;;
75007;SDS011;63554;48.940;12.050;2023-08-30T20:03:00;4.30;;;2.60;;
75007;SDS011;63554;48.940;12.050;2023-08-30T20:07:03;3.45;;;2.92;;
75007;SDS011;63554;48.940;12.050;2023-08-30T20:11:08;4.10;;;3.17;;
75007;SDS011;63554;48.940;12.050;2023-08-30T20:15:10;3.80;;;3.42;;
75007;SDS011;63554;48.940;12.050;2023-08-30T20:19:14;4.03;;;3.00;;
75007;SDS011;63554;48.940;12.050;2023-08-30T20:23:18;3.75;;;3.20;;
75007;SDS011;63554;48.940;12.050;2023-08-30T20:27:22;3.67;;;2.47;;
75007;SDS011;63554;48.940;12.050;2023-08-30T20:31:25;3.25;;;2.83;;
75007;SDS011;63554;48.940;12.050;2023-08-30T20:35:28;4.90;;;2.70;;
75007;SDS011;63554;48.940;12.050;2023-08-30T20:39:32;4.22;;;2.45;;
75007;SDS011;63554;48.940;12.050;2023-08-30T20:43:36;3.00;;;2.42;;
75007;SDS011;63554;48.940;12.050;2023-08-30T20:47:39;2.92;;;2.63;;
75007;SDS011;63554;48.940;12.050;2023-08-30T20:51:42;3.05;;;2.50;;
75007;SDS011;63554;48.940;12.050;2023-08-30T20:55:45;4.18;;;2.75;;
75007;SDS011;63554;48.940;12.050;2023-08-30T20:59:49;2.55;;;1.70;;
75007;SDS011;63554;48.940;12.050;2023-08-30T21:03:52;3.45;;;2.97;;
75007;SDS011;63554;48.940;12.050;2023-08-30T21:07:55;6.15;;;3.25;;
75007;SDS011;63554;48.940;12.050;2023-08-30T21:11:57;3.97;;;3.42;;
75007;SDS011;63554;48.940;12.050;2023-08-30T21:16:01;3.03;;;2.55;;
75007;SDS011;63554;48.940;12.050;2023-08-30T21:20:05;7.03;;;3.00;;
75007;SDS011;63554;48.940;12.050;2023-08-30T21:24:08;2.88;;;2.55;;
75007;SDS011;63554;48.940;12.050;2023-08-30T21:28:12;3.08;;;2.60;;
75007;SDS011;63554;48.940;12.050;2023-08-30T21:32:16;3.47;;;2.95;;
75007;SDS011;63554;48.940;12.050;2023-08-30T21:36:20;3.45;;;2.80;;
75007;SDS011;63554;48.940;12.050;2023-08-30T21:40:23;3.25;;;2.60;;
75007;SDS011;63554;48.940;12.050;2023-08-30T21:44:25;2.28;;;1.98;;
75007;SDS011;63554;48.940;12.050;2023-08-30T21:48:29;3.40;;;2.58;;
75007;SDS011;63554;48.940;12.050;2023-08-30T21:52:32;2.40;;;2.20;;
75007;SDS011;63554;48.940;12.050;2023-08-30T21:56:35;2.63;;;2.08;;
75007;SDS011;63554;48.940;12.050;2023-08-30T22:00:38;2.35;;;2.10;;
75007;SDS011;63554;48.940;12.050;2023-08-30T22:04:42;2.67;;;2.15;;
75007;SDS011;63554;48.940;12.050;2023-08-30T22:08:45;2.65;;;2.03;;
75007;SDS011;63554;48.940;12.050;2023-08-30T22:12:48;3.00;;;1.75;;
75007;SDS011;63554;48.940;12.050;2023-08-30T22:16:51;2.10;;;1.70;;
75007;SDS011;63554;48.940;12.050;2023-08-30T22:20:57;4.00;;;2.15;;
75007;SDS011;63554;48.940;12.050;2023-08-30T22:24:59;4.70;;;2.20;;
75007;SDS011;63554;48.940;12.050;2023-08-30T22:29:02;2.25;;;1.83;;
75007;SDS011;63554;48.940;12.050;2023-08-30T22:33:06;2.38;;;1.85;;
75007;SDS011;63554;48.940;12.050;2023-08-30T22:37:11;3.20;;;2.28;;
75007;SDS011;63554;48.940;12.050;2023-08-30T22:41:14;2.47;;;2.15;;
75007;SDS011;63554;48.940;12.050;2023-08-30T22:45:17;2.75;;;2.10;;
75007;SDS011;63554;48.940;12.050;2023-08-30T22:49:19;1.95;;;1.67;;
75007;SDS011;63554;48.940;12.050;2023-08-30T22:53:24;2.28;;;2.10;;
75007;SDS011;63554;48.940;12.050;2023-08-30T22:57:26;2.97;;;2.20;;
75007;SDS011;63554;48.940;12.050;2023-08-30T23:01:29;5.43;;;2.22;;
75007;SDS011;63554;48.940;12.050;2023-08-30T23:05:32;3.13;;;2.20;;
75007;SDS011;63554;48.940;12.050;2023-08-30T23:09:36;1.98;;;1.77;;
75007;SDS011;63554;48.940;12.050;2023-08-30T23:13:40;2.10;;;1.90;;
75007;SDS011;63554;48.940;12.050;2023-08-30T23:17:43;2.65;;;2.00;;
75007;SDS011;63554;48.940;12.050;2023-08-30T23:21:47;2.28;;;2.08;;
75007;SDS011;63554;48.940;12.050;2023-08-30T23:25:52;3.00;;;1.95;;
75007;SDS011;63554;48.940;12.050;2023-08-30T23:29:55;2.60;;;1.67;;
75007;SDS011;63554;48.940;12.050;2023-08-30T23:33:58;2.15;;;1.83;;
75007;SDS011;63554;48.940;12.050;2023-08-30T23:38:01;2.85;;;1.92;;
75007;SDS011;63554;48.940;12.050;2023-08-30T23:42:05;1.95;;;1.70;;
75007;SDS011;63554;48.940;12.050;2023-08-30T23:46:08;2.42;;;2.22;;
75007;SDS011;63554;48.940;12.050;2023-08-30T23:50:11;2.40;;;1.95;;
75007;SDS011;63554;48.940;12.050;2023-08-30T23:54:14;2.38;;;2.17;;
75007;SDS011;63554;48.940;12.050;2023-08-30T23:58:19;1.83;;;1.30;;
